Time;durP1;ratioP1;P1;durP2;ratioP2;P2;SDS_P1;SDS_P2;PMS_P1;PMS_P2;Temp;Humidity;BMP_temperature;BMP_pressure;BME280_temperature;BME280_humidity;BME280_pressure;Samples;Min_cycle;Max_cycle;Signal;HPM_P1;HPM_P2
2023/06/20 00:00:58;;;;;;;9.15;6.38;;;;;;;20.05;63.11;101303.25;4991683;28;20051;-77
2023/06/20 00:03:24;;;;;;;8.57;7.03;;;;;;;20.03;63.42;101297.59;4991694;28;20047;-77
2023/06/20 00:05:51;;;;;;;9.10;6.90;;;;;;;20.03;63.69;101296.88;4992318;28;20523;-76
2023/06/20 00:08:17;;;;;;;8.52;6.97;;;;;;;19.99;63.98;101294.44;4973491;28;20518;-77
2023/06/20 00:10:44;;;;;;;9.60;6.57;;;;;;;19.97;63.33;101292.22;4992072;28;20055;-77
2023/06/20 00:13:10;;;;;;;8.30;7.05;;;;;;;19.94;63.93;101292.47;4974481;28;20046;-76
2023/06/20 00:15:37;;;;;;;9.18;6.93;;;;;;;19.93;63.74;101293.69;4991785;28;20079;-77
2023/06/20 00:18:04;;;;;;;9.55;7.15;;;;;;;19.90;63.88;101286.56;4991873;28;21444;-77
2023/06/20 00:20:31;;;;;;;12.75;7.13;;;;;;;19.90;63.85;101289.25;4991460;28;20551;-76
2023/06/20 00:22:57;;;;;;;11.32;6.88;;;;;;;19.90;63.74;101294.66;4992068;28;20129;-77
2023/06/20 00:25:24;;;;;;;9.13;7.28;;;;;;;19.89;63.78;101285.09;4991006;28;20058;-77
2023/06/20 00:27:51;;;;;;;8.57;6.63;;;;;;;19.87;63.66;101279.44;4991930;28;20047;-77
2023/06/20 00:30:17;;;;;;;8.32;6.95;;;;;;;19.86;63.67;101277.97;4991375;28;20117;-76
2023/06/20 00:32:44;;;;;;;8.35;7.05;;;;;;;19.84;63.91;101280.41;4994216;28;20464;-77
2023/06/20 00:35:11;;;;;;;7.30;6.70;;;;;;;19.85;63.50;101281.91;4993611;28;20055;-77
2023/06/20 00:37:38;;;;;;;8.23;7.03;;;;;;;19.84;63.68;101281.16;4995132;28;20077;-76
2023/06/20 00:40:08;;;;;;;8.48;7.00;;;;;;;19.81;63.32;101276.72;4995003;28;20047;-76
2023/06/20 00:42:35;;;;;;;7.63;6.80;;;;;;;19.78;63.59;101283.13;4993518;28;20114;-76
2023/06/20 00:45:02;;;;;;;9.35;7.00;;;;;;;19.79;63.46;101279.19;4994752;28;20094;-76
2023/06/20 00:47:28;;;;;;;8.18;7.05;;;;;;;19.80;63.28;101279.94;4994646;28;20047;-76
2023/06/20 00:49:56;;;;;;;8.00;7.20;;;;;;;19.78;63.56;101283.13;4995207;28;20455;-76
2023/06/20 00:52:24;;;;;;;8.88;6.85;;;;;;;19.79;63.59;101281.88;4994612;28;20508;-76
2023/06/20 00:54:51;;;;;;;7.65;6.70;;;;;;;19.76;63.15;101277.47;4994625;28;20133;-76
2023/06/20 00:57:19;;;;;;;7.95;6.63;;;;;;;19.76;63.39;101274.03;4994851;28;20045;-76
2023/06/20 00:59:49;;;;;;;7.82;6.90;;;;;;;19.77;63.01;101272.78;4977666;28;20574;-76
2023/06/20 01:02:16;;;;;;;7.32;6.72;;;;;;;19.75;63.46;101267.16;4976921;28;20103;-76
2023/06/20 01:04:45;;;;;;;6.80;6.20;;;;;;;19.73;63.26;101264.19;4994774;28;20575;-76
2023/06/20 01:07:36;;;;;;;10.00;6.68;;;;;;;19.75;62.87;101262.47;4994600;28;20046;-76
2023/06/20 01:10:08;;;;;;;;;;;;;;;19.78;62.58;101260.78;4976372;28;20066;-76
2023/06/20 01:12:50;;;;;;;8.20;6.43;;;;;;;19.76;62.71;101261.25;4976065;28;19930;-76
2023/06/20 01:15:25;;;;;;;;;;;;;;;19.76;62.47;101263.97;4994988;28;20134;-76
2023/06/20 01:18:11;;;;;;;10.98;6.90;;;;;;;19.74;62.58;101263.72;4977700;28;19933;-76
2023/06/20 01:20:43;;;;;;;6.40;5.90;;;;;;;19.73;63.02;101264.94;4994643;28;20039;-76
2023/06/20 01:23:17;;;;;;;7.05;6.18;;;;;;;19.74;63.12;101265.69;4994345;28;20098;-76
2023/06/20 01:25:51;;;;;;;7.28;6.57;;;;;;;19.74;63.42;101269.13;4976968;28;20047;-76
2023/06/20 01:28:25;;;;;;;7.20;6.40;;;;;;;19.74;63.29;101265.69;4992810;28;20082;-76
2023/06/20 01:30:58;;;;;;;7.13;6.45;;;;;;;19.74;62.92;101276.47;4994464;28;20130;-77
2023/06/20 01:33:32;;;;;;;7.28;6.63;;;;;;;19.71;62.94;101266.66;4994093;28;20043;-76
2023/06/20 01:36:01;;;;;;;9.60;7.07;;;;;;;19.71;63.27;101264.69;4994772;28;20051;-77
2023/06/20 01:38:32;;;;;;;7.93;6.00;;;;;;;19.71;63.52;101269.34;4975790;28;20113;-77
2023/06/20 01:41:01;;;;;;;8.88;6.63;;;;;;;19.69;62.92;101267.13;4994633;28;20618;-76
2023/06/20 01:43:30;;;;;;;7.90;6.18;;;;;;;19.69;63.03;101264.44;4991150;28;20053;-77
2023/06/20 01:46:00;;;;;;;7.13;6.47;;;;;;;19.68;63.51;101262.97;4993489;28;20051;-76
2023/06/20 01:48:29;;;;;;;9.05;6.78;;;;;;;19.68;63.34;101267.63;4993755;28;20070;-77
2023/06/20 01:50:56;;;;;;;7.60;6.65;;;;;;;19.68;63.54;101267.63;4992894;28;20047;-77
2023/06/20 01:53:24;;;;;;;7.13;6.43;;;;;;;19.66;63.85;101268.13;4993414;28;20074;-77
2023/06/20 01:55:55;;;;;;;7.10;6.50;;;;;;;19.65;63.56;101263.94;4994046;28;20138;-76
2023/06/20 01:58:22;;;;;;;8.50;6.60;;;;;;;19.64;64.61;101262.47;4992164;28;20050;-77
2023/06/20 02:00:50;;;;;;;7.38;6.68;;;;;;;19.60;64.69;101268.09;4992976;28;20059;-77
2023/06/20 02:03:18;;;;;;;8.68;6.22;;;;;;;19.59;64.28;101263.94;4993806;28;20054;-77
2023/06/20 02:05:47;;;;;;;8.68;6.82;;;;;;;19.57;65.06;101263.72;4976701;28;20109;-78
2023/06/20 02:08:15;;;;;;;6.82;6.28;;;;;;;19.55;65.47;101257.31;4992646;28;20039;-77
2023/06/20 02:10:42;;;;;;;8.05;7.18;;;;;;;19.53;65.47;101248.97;4976071;28;20089;-78
2023/06/20 02:13:09;;;;;;;7.72;6.95;;;;;;;19.49;65.75;101249.19;4976147;28;20150;-77
2023/06/20 02:15:37;;;;;;;7.47;6.78;;;;;;;19.51;65.53;101248.72;4975722;28;20063;-77
2023/06/20 02:18:03;;;;;;;8.07;7.03;;;;;;;19.49;65.31;101234.94;4993825;28;20411;-78
2023/06/20 02:20:30;;;;;;;7.78;7.03;;;;;;;19.46;65.22;101244.75;4991477;28;20058;-77
2023/06/20 02:22:58;;;;;;;7.25;6.55;;;;;;;19.45;65.37;101245.97;4993689;28;20051;-77
2023/06/20 02:25:30;;;;;;;10.90;6.85;;;;;;;19.44;65.86;101232.97;4993023;28;20118;-77
2023/06/20 02:27:59;;;;;;;7.53;6.60;;;;;;;19.43;65.60;101229.53;4992277;28;20475;-77
2023/06/20 02:30:28;;;;;;;7.63;6.55;;;;;;;19.41;65.75;101228.56;4991786;28;20504;-76
2023/06/20 02:32:57;;;;;;;7.28;6.57;;;;;;;19.40;65.47;101221.69;4992146;28;20515;-76
2023/06/20 02:35:25;;;;;;;7.68;6.97;;;;;;;19.40;65.23;101216.28;4991193;28;20512;-75
2023/06/20 02:37:58;;;;;;;8.20;6.85;;;;;;;19.40;65.37;101224.38;4976288;28;20520;-75
2023/06/20 02:40:25;;;;;;;8.05;6.65;;;;;;;19.40;65.21;101222.41;4975256;28;20096;-76
2023/06/20 02:42:52;;;;;;;7.22;6.47;;;;;;;19.40;65.37;101219.72;4993668;28;20039;-75
2023/06/20 02:45:19;;;;;;;7.80;6.70;;;;;;;19.42;64.86;101219.22;4993040;28;20047;-75
2023/06/20 02:47:52;;;;;;;9.68;6.95;;;;;;;19.43;64.26;101218.00;4993250;28;20118;-75
2023/06/20 02:50:34;;;;;;;8.43;7.53;;;;;;;19.42;64.37;101211.13;4974671;28;20046;-75
2023/06/20 02:53:18;;;;;;;7.78;6.97;;;;;;;19.42;64.36;101217.25;4993745;28;20484;-76
2023/06/20 02:55:53;;;;;;;8.00;7.20;;;;;;;19.40;64.25;101219.72;4992333;28;20126;-75
2023/06/20 02:58:24;;;;;;;12.68;7.13;;;;;;;19.41;64.32;101223.16;4992776;28;20504;-75
2023/06/20 03:00:52;;;;;;;7.53;6.68;;;;;;;19.42;64.17;101219.97;4975599;28;20061;-75
2023/06/20 03:03:43;;;;;;;7.38;6.70;;;;;;;19.42;64.43;101211.88;4974785;28;20130;-76
2023/06/20 03:06:14;;;;;;;8.43;6.80;;;;;;;19.41;64.18;101215.78;4991188;28;20051;-76
2023/06/20 03:08:43;;;;;;;7.18;6.60;;;;;;;19.40;64.13;101206.22;4974962;28;20055;-76
2023/06/20 03:11:10;;;;;;;10.95;6.47;;;;;;;19.39;64.05;101199.34;4975159;28;20051;-75
2023/06/20 03:13:38;;;;;;;7.93;7.13;;;;;;;19.40;64.00;101206.22;4992468;28;20050;-75
2023/06/20 03:16:08;;;;;;;7.45;6.75;;;;;;;19.40;63.63;101200.09;4975276;28;20054;-75
2023/06/20 03:18:36;;;;;;;11.30;7.03;;;;;;;19.41;63.70;101201.56;4990912;28;20050;-76
2023/06/20 03:21:03;;;;;;;7.53;6.90;;;;;;;19.40;63.96;101203.50;4992868;28;20057;-75
2023/06/20 03:23:49;;;;;;;14.57;7.70;;;;;;;19.39;63.67;101202.03;4991621;28;20531;-75
2023/06/20 03:26:16;;;;;;;11.30;7.28;;;;;;;19.40;63.55;101208.91;4991087;28;20512;-76
2023/06/20 03:28:42;;;;;;;11.00;7.82;;;;;;;19.40;64.03;101200.09;4974705;28;20074;-76
2023/06/20 03:31:10;;;;;;;7.70;6.95;;;;;;;19.42;64.07;101203.03;4990991;28;20106;-76
2023/06/20 03:33:37;;;;;;;9.05;8.15;;;;;;;19.41;64.32;101201.56;4990274;28;20053;-76
2023/06/20 03:36:04;;;;;;;12.80;8.50;;;;;;;19.42;63.81;101203.75;4992616;28;20043;-75
2023/06/20 03:38:30;;;;;;;9.00;8.10;;;;;;;19.42;64.36;101194.94;4973555;28;20086;-75
2023/06/20 03:40:58;;;;;;;8.95;7.60;;;;;;;19.40;64.47;101195.41;4989940;28;20078;-75
2023/06/20 03:43:24;;;;;;;10.10;8.07;;;;;;;19.39;65.35;101191.25;4989706;28;20058;-76
2023/06/20 03:45:51;;;;;;;13.43;8.48;;;;;;;19.38;65.49;101194.44;4973903;28;20055;-75
2023/06/20 03:48:19;;;;;;;9.27;8.48;;;;;;;19.38;65.45;101195.16;4991247;28;20074;-76
2023/06/20 03:50:46;;;;;;;8.68;7.97;;;;;;;19.38;65.23;101189.78;4974757;28;20047;-76
2023/06/20 03:53:13;;;;;;;9.68;8.38;;;;;;;19.39;64.86;101193.22;4990435;28;20047;-76
2023/06/20 03:55:41;;;;;;;11.00;8.77;;;;;;;19.39;64.82;101187.81;4958502;28;20094;-76
2023/06/20 03:58:08;;;;;;;9.30;8.27;;;;;;;19.39;65.28;101187.81;4974290;28;20090;-76
2023/06/20 04:00:34;;;;;;;10.20;8.75;;;;;;;19.39;65.01;101182.41;4974745;28;20050;-76
2023/06/20 04:03:01;;;;;;;12.05;8.80;;;;;;;19.39;64.83;101187.81;4974501;28;20502;-76
2023/06/20 04:05:28;;;;;;;9.43;8.52;;;;;;;19.39;64.85;101183.16;4973913;28;20054;-75
2023/06/20 04:07:55;;;;;;;11.93;8.63;;;;;;;19.41;64.71;101188.78;4995071;28;20527;-75
2023/06/20 04:10:21;;;;;;;12.50;8.88;;;;;;;19.42;65.07;101190.28;4995186;28;20478;-75
2023/06/20 04:12:48;;;;;;;10.73;9.02;;;;;;;19.43;64.52;101188.31;4995798;28;20054;-75
2023/06/20 04:15:15;;;;;;;14.52;8.27;;;;;;;19.45;64.80;101186.59;4993849;28;20591;-76
2023/06/20 04:17:42;;;;;;;12.00;8.93;;;;;;;19.46;64.83;101184.63;4993182;28;20539;-74
2023/06/20 04:20:12;;;;;;;9.10;8.20;;;;;;;19.48;64.90;101188.31;4993404;28;20134;-75
2023/06/20 04:22:41;;;;;;;9.18;8.25;;;;;;;19.50;65.14;101188.56;4995788;28;20047;-74
2023/06/20 04:25:09;;;;;;;8.90;8.10;;;;;;;19.53;64.87;101182.22;4993684;28;20102;-75
2023/06/20 04:27:36;;;;;;;9.48;8.57;;;;;;;19.57;64.74;101190.81;4977339;28;20053;-75
2023/06/20 04:30:05;;;;;;;11.85;8.45;;;;;;;19.59;65.58;101193.72;4993644;28;20054;-75
2023/06/20 04:32:33;;;;;;;11.93;8.75;;;;;;;19.61;64.85;101196.66;4976696;28;20050;-75
2023/06/20 04:35:00;;;;;;;11.52;8.60;;;;;;;19.61;64.98;101193.97;4993871;28;20055;-76
2023/06/20 04:37:29;;;;;;;9.68;8.57;;;;;;;19.64;65.04;101197.66;4994335;28;20034;-75
2023/06/20 04:39:58;;;;;;;14.68;8.55;;;;;;;19.68;64.99;101194.72;4993808;28;20055;-75
2023/06/20 04:42:24;;;;;;;9.90;8.90;;;;;;;19.68;64.49;101200.09;4992880;28;20095;-75
2023/06/20 04:44:51;;;;;;;13.48;9.02;;;;;;;19.71;64.94;101197.16;4977092;28;20137;-75
2023/06/20 04:47:17;;;;;;;10.10;8.50;;;;;;;19.70;65.14;101195.69;4976879;28;20050;-75
2023/06/20 04:49:44;;;;;;;9.50;8.45;;;;;;;19.71;65.25;101191.03;4993779;28;20070;-76
2023/06/20 04:52:11;;;;;;;11.00;8.60;;;;;;;19.72;64.79;101197.91;4977044;28;20063;-76
2023/06/20 04:54:37;;;;;;;15.23;9.63;;;;;;;19.73;64.92;101193.97;4994816;28;20103;-75
2023/06/20 04:57:04;;;;;;;11.48;9.07;;;;;;;19.76;65.00;101191.03;4976909;28;20137;-76
2023/06/20 04:59:31;;;;;;;10.10;8.70;;;;;;;19.78;65.04;101195.94;4994755;28;20074;-76
2023/06/20 05:01:58;;;;;;;11.85;9.32;;;;;;;19.79;64.62;101184.66;4994535;28;20065;-76
2023/06/20 05:04:25;;;;;;;12.98;9.07;;;;;;;19.82;64.49;101180.22;4976658;28;20117;-76
2023/06/20 05:06:54;;;;;;;11.93;9.10;;;;;;;19.85;64.66;101182.69;4994834;28;20631;-76
2023/06/20 05:09:21;;;;;;;9.55;8.65;;;;;;;19.90;64.45;101183.91;4992599;28;20055;-75
2023/06/20 05:11:47;;;;;;;11.85;9.02;;;;;;;19.93;64.24;101178.25;4994557;28;20534;-75
2023/06/20 05:14:14;;;;;;;14.73;9.52;;;;;;;19.95;64.35;101188.56;4994396;28;20558;-76
2023/06/20 05:16:40;;;;;;;15.02;9.77;;;;;;;19.97;64.72;101189.53;4994157;28;20155;-77
2023/06/20 05:19:07;;;;;;;13.90;9.68;;;;;;;20.03;64.29;101181.41;4993607;28;20051;-77
2023/06/20 05:21:33;;;;;;;12.43;10.02;;;;;;;20.07;64.38;101181.16;4994335;28;20122;-76
2023/06/20 05:24:00;;;;;;;12.68;9.57;;;;;;;20.11;63.97;101182.38;4960980;28;20114;-77
2023/06/20 05:26:27;;;;;;;10.82;9.30;;;;;;;20.18;64.29;101176.47;4993973;28;20059;-77
2023/06/20 05:28:53;;;;;;;11.88;9.88;;;;;;;20.21;63.95;101177.44;4994156;28;20051;-76
2023/06/20 05:31:19;;;;;;;13.05;9.38;;;;;;;20.26;63.92;101180.13;4994094;28;20047;-77
2023/06/20 05:33:47;;;;;;;13.18;10.30;;;;;;;20.29;63.74;101168.34;4977143;28;20043;-75
2023/06/20 05:36:13;;;;;;;12.10;9.35;;;;;;;20.37;63.59;101170.53;4994104;28;20139;-76
2023/06/20 05:38:40;;;;;;;12.70;10.10;;;;;;;20.43;63.30;101173.94;4994243;28;20039;-76
2023/06/20 05:41:07;;;;;;;16.85;10.10;;;;;;;20.46;63.18;101164.84;4993939;28;20046;-75
2023/06/20 05:43:33;;;;;;;11.73;9.57;;;;;;;20.51;63.55;101162.13;4993151;28;20554;-75
2023/06/20 05:46:00;;;;;;;14.23;10.45;;;;;;;20.57;63.49;101168.25;4993993;28;20045;-76
2023/06/20 05:48:26;;;;;;;18.83;10.70;;;;;;;20.62;63.47;101164.03;4993676;28;20520;-77
2023/06/20 05:50:53;;;;;;;12.85;10.70;;;;;;;20.72;62.96;101169.91;4994030;28;20043;-75
2023/06/20 05:53:20;;;;;;;14.57;10.82;;;;;;;20.84;62.46;101157.78;4993527;28;20461;-75
2023/06/20 05:55:50;;;;;;;11.25;10.15;;;;;;;20.96;62.81;101161.88;4993956;28;20082;-75
2023/06/20 05:58:18;;;;;;;14.65;10.93;;;;;;;21.13;61.93;101159.81;4975734;28;20061;-75
2023/06/20 06:00:45;;;;;;;12.25;10.20;;;;;;;21.26;61.80;101159.25;4994105;28;20054;-75
2023/06/20 06:03:13;;;;;;;16.00;10.48;;;;;;;21.36;61.09;101168.53;4993700;28;20106;-75
2023/06/20 06:05:41;;;;;;;10.95;9.82;;;;;;;21.49;60.85;101165.25;4993563;28;20039;-77
2023/06/20 06:08:07;;;;;;;17.33;10.20;;;;;;;21.62;60.81;101154.50;4993365;28;20571;-77
2023/06/20 06:10:34;;;;;;;13.82;10.75;;;;;;;21.71;60.17;101150.75;4993517;28;20150;-77
2023/06/20 06:13:01;;;;;;;13.98;11.30;;;;;;;21.82;59.79;101151.38;4993333;28;20051;-77
2023/06/20 06:15:27;;;;;;;12.95;10.30;;;;;;;21.95;59.61;101148.78;4993301;28;20090;-78
2023/06/20 06:17:54;;;;;;;17.35;10.30;;;;;;;22.11;59.19;101144.44;4975813;28;20142;-77
2023/06/20 06:20:23;;;;;;;19.52;9.82;;;;;;;22.33;59.48;101140.00;4975394;28;20461;-75
2023/06/20 06:22:51;;;;;;;15.85;10.73;;;;;;;22.63;58.22;101143.31;4993989;28;20506;-76
2023/06/20 06:25:18;;;;;;;17.20;10.40;;;;;;;22.80;57.61;101140.38;4993471;28;20496;-77
2023/06/20 06:27:44;;;;;;;16.35;10.43;;;;;;;22.92;57.27;101142.44;4975561;28;20137;-76
2023/06/20 06:30:11;;;;;;;11.13;10.02;;;;;;;23.09;56.33;101146.88;4993148;28;20047;-77
2023/06/20 06:32:38;;;;;;;10.88;9.98;;;;;;;23.19;56.59;101139.81;4993319;28;20154;-77
2023/06/20 06:35:07;;;;;;;14.13;10.75;;;;;;;23.20;55.89;101142.00;4993199;28;20070;-76
2023/06/20 06:37:34;;;;;;;11.20;10.18;;;;;;;23.33;55.97;101156.88;4993130;28;20567;-76
2023/06/20 06:40:04;;;;;;;14.48;10.77;;;;;;;23.44;56.38;101160.16;4993305;28;20043;-77
2023/06/20 06:42:31;;;;;;;13.65;10.95;;;;;;;23.49;56.62;101155.88;4992355;28;20139;-78
2023/06/20 06:45:01;;;;;;;10.73;9.75;;;;;;;23.54;55.13;101157.78;4975869;28;20055;-78
2023/06/20 06:47:27;;;;;;;15.88;10.40;;;;;;;23.46;55.86;101165.06;4992382;28;20105;-78
2023/06/20 06:49:54;;;;;;;11.95;10.93;;;;;;;23.34;56.27;101159.06;4993465;28;20117;-78
2023/06/20 06:52:21;;;;;;;14.18;10.68;;;;;;;23.42;56.06;101165.38;4992818;28;20047;-79
2023/06/20 06:54:47;;;;;;;18.77;12.80;;;;;;;23.57;55.90;101162.19;4975217;28;20074;-78
2023/06/20 06:57:14;;;;;;;12.82;11.35;;;;;;;23.68;56.50;101161.25;4992203;28;20038;-77
2023/06/20 06:59:40;;;;;;;12.18;10.20;;;;;;;23.73;55.69;101163.88;4992719;28;20034;-76
2023/06/20 07:02:07;;;;;;;12.32;11.07;;;;;;;23.86;54.97;101163.88;4975305;28;20055;-75
2023/06/20 07:04:33;;;;;;;11.88;10.77;;;;;;;24.00;54.64;101163.88;4992858;28;20042;-74
2023/06/20 07:07:00;;;;;;;12.00;10.85;;;;;;;24.11;54.24;101167.13;4991471;28;20137;-75
2023/06/20 07:09:26;;;;;;;11.30;10.27;;;;;;;24.17;55.12;101158.84;4990572;28;20102;-74
2023/06/20 07:11:53;;;;;;;15.38;11.07;;;;;;;24.22;54.30;101147.88;4974508;28;20492;-74
2023/06/20 07:14:19;;;;;;;12.15;10.93;;;;;;;24.31;54.46;101143.28;4992239;28;20042;-75
2023/06/20 07:16:46;;;;;;;13.07;10.40;;;;;;;24.27;53.71;101157.94;4992747;28;20479;-74
2023/06/20 07:19:31;;;;;;;11.90;10.80;;;;;;;24.35;53.69;101144.44;4992109;28;20049;-75
2023/06/20 07:21:57;;;;;;;11.90;10.77;;;;;;;24.45;53.70;101140.00;4975412;28;20053;-78
2023/06/20 07:24:24;;;;;;;13.07;10.85;;;;;;;24.67;53.87;101138.78;4992275;28;20047;-78
2023/06/20 07:26:51;;;;;;;14.30;11.55;;;;;;;24.86;53.54;101136.63;4974313;28;20050;-78
2023/06/20 07:29:17;;;;;;;16.60;11.15;;;;;;;25.09;52.80;101138.84;4992219;28;20123;-78
2023/06/20 07:31:44;;;;;;;12.00;10.77;;;;;;;25.11;52.14;101136.34;4992701;28;20047;-80
2023/06/20 07:34:10;;;;;;;14.57;11.63;;;;;;;25.16;52.31;101132.75;4974654;28;20490;-78
2023/06/20 07:36:37;;;;;;;13.57;11.95;;;;;;;25.27;53.00;101129.72;4975009;28;20489;-77
2023/06/20 07:39:03;;;;;;;20.35;12.38;;;;;;;25.54;51.14;101122.13;4992510;28;20046;-77
2023/06/20 07:41:30;;;;;;;13.20;11.88;;;;;;;25.75;50.35;101130.28;4990789;28;20102;-77
2023/06/20 07:43:56;;;;;;;13.15;11.95;;;;;;;25.81;50.65;101128.13;4990625;28;20109;-78
2023/06/20 07:46:24;;;;;;;14.45;12.55;;;;;;;26.05;50.71;101133.16;4991754;28;20199;-80
2023/06/20 07:48:51;;;;;;;13.82;11.98;;;;;;;26.31;49.75;101126.75;4990796;28;20050;-77
2023/06/20 07:51:17;;;;;;;16.33;12.75;;;;;;;26.32;49.15;101130.22;4991308;28;20133;-75
2023/06/20 07:53:44;;;;;;;13.57;12.32;;;;;;;26.46;48.25;101126.78;4992097;28;20047;-74
2023/06/20 07:56:10;;;;;;;12.60;11.30;;;;;;;26.65;48.75;101126.47;4991066;28;20053;-75
2023/06/20 07:58:38;;;;;;;13.80;11.35;;;;;;;27.04;48.61;101130.00;4974424;28;20117;-75
2023/06/20 08:01:06;;;;;;;35.88;11.95;;;;;;;27.06;48.36;101139.09;4991665;28;20183;-77
2023/06/20 08:03:33;;;;;;;12.70;11.57;;;;;;;26.70;48.53;101133.75;4991857;28;20047;-79
2023/06/20 08:06:00;;;;;;;14.75;10.52;;;;;;;26.50;49.54;101124.44;4992016;28;20043;-78
2023/06/20 08:08:26;;;;;;;12.60;11.45;;;;;;;26.68;48.87;101124.66;4990990;28;20126;-78
2023/06/20 08:10:53;;;;;;;12.48;11.23;;;;;;;26.80;48.85;101120.28;4991670;28;20122;-77
2023/06/20 08:13:19;;;;;;;13.57;11.65;;;;;;;26.97;48.68;101117.06;4991625;28;20047;-78
2023/06/20 08:15:46;;;;;;;12.90;11.60;;;;;;;27.12;48.03;101120.53;4974125;28;20081;-80
2023/06/20 08:18:13;;;;;;;11.52;10.32;;;;;;;27.46;48.57;101125.59;4974127;28;20047;-74
2023/06/20 08:20:41;;;;;;;10.82;9.93;;;;;;;27.70;48.03;101112.63;4973285;28;20512;-79
2023/06/20 08:23:08;;;;;;;19.45;10.38;;;;;;;27.98;46.33;101111.66;4990929;28;20051;-76
2023/06/20 08:25:34;;;;;;;9.90;9.00;;;;;;;27.87;47.05;101105.28;4990262;28;20050;-77
2023/06/20 08:28:01;;;;;;;9.77;8.90;;;;;;;27.80;47.18;101102.59;4991940;28;20049;-77
2023/06/20 08:30:41;;;;;;;29.83;10.32;;;;;;;28.08;46.85;101096.81;4991507;28;20050;-77
2023/06/20 08:33:07;;;;;;;7.13;6.57;;;;;;;28.03;46.15;101091.53;4991152;28;20050;-77
2023/06/20 08:35:34;;;;;;;7.22;5.95;;;;;;;28.23;46.49;101098.06;4991381;28;20042;-77
2023/06/20 08:38:00;;;;;;;7.10;6.60;;;;;;;28.09;46.72;101101.00;4990766;28;20081;-78
2023/06/20 08:40:28;;;;;;;8.85;6.15;;;;;;;28.17;47.19;101101.69;4991151;28;20047;-78
2023/06/20 08:42:55;;;;;;;11.10;6.40;;;;;;;28.33;47.46;101116.06;4991487;28;20178;-78
2023/06/20 08:45:22;;;;;;;11.68;6.60;;;;;;;28.57;46.04;101113.91;4991043;28;20133;-78
2023/06/20 08:47:49;;;;;;;7.53;7.03;;;;;;;28.54;45.85;101113.03;4991356;28;20088;-78
2023/06/20 08:50:16;;;;;;;7.60;6.82;;;;;;;28.49;46.18;101113.97;4990878;28;20081;-78
2023/06/20 08:52:49;;;;;;;9.88;7.40;;;;;;;28.51;46.91;101114.13;4990641;28;20054;-78
2023/06/20 08:55:16;;;;;;;6.68;6.25;;;;;;;28.73;46.03;101109.81;4994407;28;20082;-78
2023/06/20 08:57:46;;;;;;;7.07;6.57;;;;;;;28.81;45.19;101111.22;4994300;28;20063;-78
2023/06/20 09:00:17;;;;;;;11.90;7.00;;;;;;;28.91;45.46;101107.84;4994580;28;20106;-78
2023/06/20 09:02:43;;;;;;;;;;;;;;;29.19;46.97;101110.91;4994923;28;20073;-78
2023/06/20 09:05:10;;;;;;;8.32;7.18;;;;;;;29.23;44.83;101104.28;4994829;28;20414;-77
2023/06/20 09:07:38;;;;;;;9.60;6.25;;;;;;;29.56;45.66;101104.91;4993803;28;20047;-78
2023/06/20 09:10:07;;;;;;;11.07;7.60;;;;;;;29.62;43.71;101108.13;4976686;28;20059;-78
2023/06/20 09:12:49;;;;;;;7.47;7.05;;;;;;;29.84;44.20;101107.88;4994196;28;20090;-81
2023/06/20 09:15:18;;;;;;;15.70;6.95;;;;;;;29.96;43.68;101110.84;4994539;28;20463;-82
2023/06/20 09:17:49;;;;;;;9.00;6.47;;;;;;;29.75;43.49;101097.56;4995040;28;20046;-79
2023/06/20 09:20:16;;;;;;;10.48;7.82;;;;;;;29.98;43.49;101088.34;4994492;28;20050;-77
2023/06/20 09:22:43;;;;;;;8.13;7.43;;;;;;;30.07;42.33;101087.69;4993441;28;20498;-80
2023/06/20 09:25:11;;;;;;;16.02;7.47;;;;;;;30.39;42.58;101089.47;4994393;28;20051;-81
2023/06/20 09:27:41;;;;;;;10.77;6.70;;;;;;;30.44;42.56;101099.44;4993800;28;20563;-78
2023/06/20 09:30:08;;;;;;;7.77;7.17;;;;;;;30.28;42.50;101098.94;4994027;28;20130;-77
2023/06/20 09:32:37;;;;;;;6.85;6.43;;;;;;;30.35;43.01;101084.38;4993884;28;20038;-77
2023/06/20 09:35:05;;;;;;;8.23;6.47;;;;;;;30.40;42.35;101088.13;4976479;28;20051;-78
2023/06/20 09:37:47;;;;;;;6.55;6.00;;;;;;;30.52;41.70;101092.53;4993116;28;20053;-78
2023/06/20 09:40:15;;;;;;;5.35;4.95;;;;;;;30.75;41.53;101092.22;4993886;28;20512;-76
2023/06/20 09:42:43;;;;;;;6.88;4.95;;;;;;;30.93;40.91;101089.38;4993512;28;20138;-77
2023/06/20 09:45:12;;;;;;;5.95;5.45;;;;;;;31.04;40.03;101089.53;4993923;28;20492;-78
2023/06/20 09:47:40;;;;;;;5.90;5.50;;;;;;;30.81;40.41;101094.69;4993347;28;20051;-78
2023/06/20 09:50:08;;;;;;;6.32;5.20;;;;;;;30.77;40.55;101088.91;4991923;28;20047;-78
2023/06/20 09:52:47;;;;;;;5.75;5.25;;;;;;;30.79;40.80;101087.00;4993632;28;20050;-78
2023/06/20 09:55:15;;;;;;;6.13;5.72;;;;;;;30.98;40.30;101093.88;4993581;28;20057;-77
2023/06/20 09:57:46;;;;;;;7.15;5.55;;;;;;;30.95;40.39;101093.00;4976173;28;20051;-78
2023/06/20 10:00:14;;;;;;;7.10;6.25;;;;;;;31.13;40.31;101093.63;4993686;28;20126;-77
2023/06/20 10:02:44;;;;;;;5.30;5.00;;;;;;;31.27;40.56;101097.41;4976035;28;20050;-77
2023/06/20 10:05:16;;;;;;;5.78;5.25;;;;;;;31.22;40.53;101094.94;4992573;28;20054;-77
2023/06/20 10:07:44;;;;;;;6.05;5.65;;;;;;;31.15;41.09;101091.03;4993604;28;20047;-75
2023/06/20 10:10:12;;;;;;;6.38;5.93;;;;;;;31.19;41.20;101091.34;4993160;28;20520;-75
2023/06/20 10:12:41;;;;;;;6.97;5.82;;;;;;;31.44;40.07;101091.06;4993331;28;20046;-79
2023/06/20 10:15:09;;;;;;;5.63;5.07;;;;;;;31.40;40.23;101096.25;4993229;28;20586;-77
2023/06/20 10:17:41;;;;;;;5.03;4.50;;;;;;;31.34;40.26;101104.06;4993180;28;20054;-79
2023/06/20 10:20:24;;;;;;;8.48;5.10;;;;;;;31.57;40.34;101095.41;4975362;28;20438;-76
2023/06/20 10:22:51;;;;;;;5.75;5.45;;;;;;;31.77;40.07;101085.84;4993877;28;20055;-81
2023/06/20 10:25:18;;;;;;;5.95;5.45;;;;;;;31.89;38.91;101081.19;4993442;28;20074;-78
2023/06/20 10:27:55;;;;;;;5.45;5.05;;;;;;;32.14;38.76;101084.31;4993732;28;20034;-78
2023/06/20 10:30:53;;;;;;;8.18;6.55;;;;;;;32.21;39.04;101079.94;4974960;28;20126;-79
2023/06/20 10:33:28;;;;;;;7.70;5.75;;;;;;;32.03;39.69;101084.19;4975403;28;20077;-81
2023/06/20 10:36:13;;;;;;;7.05;6.45;;;;;;;32.11;39.74;101079.97;4993617;28;20075;-82
2023/06/20 10:38:59;;;;;;;7.35;6.55;;;;;;;32.16;40.08;101078.22;4992796;28;20062;-80
2023/06/20 10:41:27;;;;;;;7.03;6.30;;;;;;;32.11;38.88;101074.47;4985866;28;20499;-81
2023/06/20 10:43:55;;;;;;;7.03;6.32;;;;;;;31.76;38.91;101076.13;4975793;28;20055;-88
2023/06/20 10:46:27;;;;;;;68.80;61.78;;;;;;;31.71;40.27;101071.66;4975670;28;20503;-86
2023/06/20 10:48:54;;;;;;;8.55;6.53;;;;;;;31.86;40.26;101071.34;4992841;28;20502;-78
2023/06/20 10:51:20;;;;;;;6.85;6.43;;;;;;;32.21;38.90;101066.19;4992731;28;20531;-78
2023/06/20 10:53:47;;;;;;;6.15;5.47;;;;;;;32.16;39.45;101059.66;4993351;28;20043;-77
2023/06/20 10:56:27;;;;;;;4.97;4.47;;;;;;;32.32;39.32;101071.09;4993025;28;20109;-80
2023/06/20 10:58:53;;;;;;;6.43;4.47;;;;;;;31.79;39.46;101064.69;4993395;28;20054;-81
2023/06/20 11:01:26;;;;;;;5.50;5.10;;;;;;;31.66;39.64;101056.84;4992769;28;20047;-78
2023/06/20 11:03:52;;;;;;;5.30;4.90;;;;;;;32.08;39.45;101055.63;4992555;28;20539;-77
2023/06/20 11:06:19;;;;;;;8.30;4.50;;;;;;;31.94;39.03;101047.16;4992558;28;20054;-79
2023/06/20 11:08:45;;;;;;;4.55;4.20;;;;;;;31.91;39.59;101051.06;4992589;28;20066;-81
2023/06/20 11:11:12;;;;;;;4.45;4.05;;;;;;;32.03;38.78;101042.91;4975672;28;20133;-80
2023/06/20 11:13:41;;;;;;;4.88;4.50;;;;;;;32.09;39.11;101046.78;4975461;28;20097;-81
2023/06/20 11:16:07;;;;;;;4.55;4.18;;;;;;;32.15;39.28;101038.22;4991541;28;20039;-79
2023/06/20 11:18:35;;;;;;;4.47;4.05;;;;;;;31.67;38.99;101041.81;4992127;28;20047;-80
2023/06/20 11:21:01;;;;;;;4.07;3.88;;;;;;;31.36;40.18;101036.19;4992814;28;20047;-79
2023/06/20 11:23:34;;;;;;;7.25;4.15;;;;;;;31.18;40.95;101032.16;4991983;28;20050;-80
2023/06/20 11:26:02;;;;;;;4.05;3.85;;;;;;;31.58;41.28;101028.78;4975627;28;20505;-79